Gateway, Georgia
Current Conditions -  °F | °C
As of 1:15 PM on Friday 19 Dec 2014 (Local Time) from KTVI Reporting Station
Clear Clear  
Wind Chill: 64°   Ceiling: Unl
Heat Index: 64°   Visibility: 10mi
Dew Point: 37°   Wind: 0mph
Humidity: 37%   Direction: NA
Pressure: 30.13"   Gusts: NA
Location:  30.7834°N, 84.0162°W
Report Text: KTVI 191815Z AUTO 00000KT 10SM CLR 18/03 A3013 RMK AO2
Loading
Personal Weather Stations






























Interactive Weather Map New forecast layout! Learn more

10-Day Weather Forecast

Advertisements
Track Severe Weather on mobile